Joplin, MT (59531)

12:02 PM MDT on September 04, 2015 (GMT -0600)
17 miles N. of Chester, MT; Mattson Bros Inc. Farms | | Change Station
CLOSE
Current Station
Personal Weather Station
Location: Chester, MT
Elevation: 3497 ft
Nearby Weather Stations

Elev 3497 ft 48.74 °N, 110.93 °W | Updated 1 minute ago

Rain
Rain
48.7 °F
Feels Like 46 °F
N
7.0
Wind Variable Wind from ENE
Gusts 12.0 mph

Today
High -- | Low -- °F
--% Chance of Precip.
Yesterday
High -- | Low -- °F
Precip. -- in
6:44 AM 7:59 PM
Waning Gibbous, 57% visible
Pressure 30.03 in
Visibility 10.0 miles
Clouds Overcast 6500 ft
Windchill 46 °F
Dew Point 47 °F
Humidity 93%
Rainfall 0.18 in
Snow Depth Not available.
UV 2 out of 12
Pollen 5.40 out of 12
Air Quality Not available.
Flu Activity Not available.
METAR KHVR 041753Z AUTO 36005KT 10SM -RA OVC065 12/10 A3002 RMK AO2 SLP169 P0006 60008 T01170100 10128 20100 53009
Pressure 30.03 in
Visibility 10.0 miles
Clouds Overcast 6500 ft
Windchill 46 °F
Dew Point 47 °F
Humidity 93%
Rainfall 0.18 in
Snow Depth Not available.
UV 2 out of 12
Pollen 5.40 out of 12
Air Quality Not available.
Flu Activity Not available.
METAR KHVR 041753Z AUTO 36005KT 10SM -RA OVC065 12/10 A3002 RMK AO2 SLP169 P0006 60008 T01170100 10128 20100 53009

10-Day Weather Forecast

×

Almanac

Astronomy

Sep. 04, 2015 Rise Set
Actual Time
Civil Twilight
Nautical Twilight
Astronomical Twilight
Moon
Length of Visible Light
Length of Day
Tomorrow will be .
, % of the Moon is Illuminated

Today's Extremes

State Highs State Lows

Community

WunderPhotos

Upload Photos

1,852,253 photos uploaded!

WunderBlogs® & News

Nearby

Air Quality

  Air Quality AQ Index Pollutant
Not available.

Snow Depth

Station Depth Elevation

Earthquake Activity

City Distance Mag. Time & Date
Minimum magnitude displayed is 2.5.

Coastal Water Temperatures

Place Temperature

Stations

Nearby Weather Stations

Station Location Temp. Windchill Dew Point Humidity Wind Precip. Elev Updated Type